createdAt,value
2018-11-04T00:00:21.136Z,30.10
2018-11-04T00:02:48.974Z,27.27
2018-11-04T00:05:16.412Z,38.58
2018-11-04T00:07:43.985Z,38.42
2018-11-04T00:10:12.051Z,38.20
2018-11-04T00:12:39.504Z,31.25
2018-11-04T00:15:08.708Z,31.20
2018-11-04T00:17:37.488Z,32.70
2018-11-04T00:20:08.152Z,37.88
2018-11-04T00:22:35.515Z,61.08
2018-11-04T00:25:02.904Z,58.13
2018-11-04T00:27:30.166Z,50.92
2018-11-04T00:29:57.419Z,71.28
2018-11-04T00:32:24.424Z,56.58
2018-11-04T00:34:51.680Z,44.13
2018-11-04T00:37:18.991Z,40.08
2018-11-04T00:39:46.192Z,42.05
2018-11-04T00:42:13.289Z,35.90
2018-11-04T00:44:40.487Z,34.50
2018-11-04T00:47:07.696Z,31.55
2018-11-04T00:49:35.175Z,31.15
2018-11-04T00:52:02.753Z,23.55
2018-11-04T00:54:30.035Z,20.62
2018-11-04T00:56:57.430Z,30.20
2018-11-04T00:59:24.552Z,24.95
2018-11-04T01:01:51.837Z,21.45
2018-11-04T01:04:19.352Z,23.80
2018-11-04T01:06:46.515Z,20.40
2018-11-04T01:09:15.339Z,20.00
2018-11-04T01:11:42.313Z,29.72
2018-11-04T01:14:09.973Z,26.97
2018-11-04T01:16:37.160Z,22.52
2018-11-04T01:19:05.435Z,18.40
2018-11-04T01:21:32.603Z,19.05
2018-11-04T01:23:59.882Z,19.80
2018-11-04T01:26:27.016Z,51.53
2018-11-04T01:28:55.546Z,53.42
2018-11-04T01:31:22.697Z,22.17
2018-11-04T01:33:49.820Z,18.20
2018-11-04T01:36:17.023Z,17.98
2018-11-04T01:38:44.080Z,17.52
2018-11-04T01:41:11.363Z,18.80
2018-11-04T01:43:38.563Z,19.50
2018-11-04T01:46:05.672Z,18.73
2018-11-04T01:48:32.755Z,19.48
2018-11-04T01:50:59.854Z,19.75
2018-11-04T01:53:26.920Z,19.82
2018-11-04T01:55:54.048Z,24.85
2018-11-04T01:58:21.206Z,21.97
2018-11-04T02:00:48.404Z,18.48
2018-11-04T02:03:15.554Z,17.27
2018-11-04T02:05:42.641Z,22.85
2018-11-04T02:08:09.747Z,18.05
2018-11-04T02:10:36.833Z,18.95
2018-11-04T02:13:04.111Z,21.07
2018-11-04T02:15:31.200Z,18.95
2018-11-04T02:17:58.396Z,24.55
2018-11-04T02:20:25.635Z,23.77
2018-11-04T02:22:52.700Z,21.10
2018-11-04T02:25:19.872Z,20.32
2018-11-04T02:27:47.035Z,22.48
2018-11-04T02:30:15.567Z,324.82
2018-11-04T02:32:44.141Z,105.78
2018-11-04T02:35:12.707Z,71.90
2018-11-04T02:37:41.288Z,45.45
2018-11-04T02:40:08.523Z,52.38
2018-11-04T02:42:36.204Z,48.87
2018-11-04T02:45:03.684Z,27.35
2018-11-04T02:47:30.763Z,32.63
2018-11-04T02:49:57.819Z,22.65
2018-11-04T02:52:25.008Z,24.55
2018-11-04T02:54:57.532Z,19.20
2018-11-04T02:57:36.902Z,22.30
2018-11-04T03:00:14.044Z,28.57
2018-11-04T03:02:44.867Z,24.75
2018-11-04T03:05:12.119Z,25.68
2018-11-04T03:07:41.463Z,23.95
2018-11-04T03:10:09.973Z,21.80
2018-11-04T03:12:37.323Z,20.65
2018-11-04T03:15:04.508Z,21.42
2018-11-04T03:17:31.579Z,23.65
2018-11-04T03:19:58.774Z,24.37
2018-11-04T03:22:26.989Z,25.00
2018-11-04T03:24:54.057Z,25.20
2018-11-04T03:27:21.104Z,26.37
2018-11-04T03:29:48.272Z,20.10
2018-11-04T03:32:16.679Z,27.05
2018-11-04T03:34:43.744Z,25.92
2018-11-04T03:37:11.284Z,22.98
2018-11-04T03:39:38.459Z,28.20
2018-11-04T03:42:05.536Z,35.28
2018-11-04T03:44:32.650Z,24.35
2018-11-04T03:46:59.743Z,35.30
2018-11-04T03:49:26.796Z,27.25
2018-11-04T03:51:53.897Z,24.02
2018-11-04T03:54:20.952Z,21.55
2018-11-04T03:56:48.004Z,26.80
2018-11-04T03:59:15.320Z,24.40
2018-11-04T04:01:42.389Z,21.57
2018-11-04T04:04:10.798Z,28.90
2018-11-04T04:06:37.991Z,30.60
2018-11-04T04:09:09.036Z,30.08
2018-11-04T04:11:36.283Z,31.02
2018-11-04T04:14:03.444Z,26.12
2018-11-04T04:16:30.524Z,28.17
2018-11-04T04:18:57.628Z,30.10
2018-11-04T04:21:24.706Z,30.15
2018-11-04T04:23:51.793Z,33.28
2018-11-04T04:26:18.873Z,32.05
2018-11-04T04:28:46.356Z,36.70
2018-11-04T04:31:13.526Z,36.55
2018-11-04T04:33:40.702Z,30.48
2018-11-04T04:36:08.983Z,33.00
2018-11-04T04:38:36.131Z,40.20
2018-11-04T04:41:03.343Z,30.68
2018-11-04T04:43:30.855Z,28.38
2018-11-04T04:45:57.915Z,30.17
2018-11-04T04:48:24.978Z,28.45
2018-11-04T04:50:52.548Z,29.00
2018-11-04T04:53:22.431Z,28.98
2018-11-04T04:55:49.941Z,29.23
2018-11-04T04:58:17.408Z,29.12
2018-11-04T05:00:44.575Z,33.80
2018-11-04T05:03:11.644Z,32.80
2018-11-04T05:05:39.028Z,31.33
2018-11-04T05:08:06.214Z,29.45
2018-11-04T05:10:33.379Z,29.40
2018-11-04T05:13:00.450Z,38.98
2018-11-04T05:15:27.530Z,28.00
2018-11-04T05:17:55.040Z,38.63
2018-11-04T05:20:22.107Z,23.20
2018-11-04T05:22:49.159Z,29.37
2018-11-04T05:25:16.256Z,26.97
2018-11-04T05:27:43.416Z,30.30
2018-11-04T05:30:11.534Z,25.65
2018-11-04T05:32:38.698Z,31.97
2018-11-04T05:35:07.612Z,29.37
2018-11-04T05:37:35.655Z,33.85
2018-11-04T05:40:04.428Z,32.58
2018-11-04T05:42:31.592Z,32.65
2018-11-04T05:44:58.684Z,31.80
2018-11-04T05:47:25.774Z,30.75
2018-11-04T05:49:53.179Z,25.52
2018-11-04T05:52:20.280Z,33.88
2018-11-04T05:54:47.440Z,27.45
2018-11-04T05:57:14.667Z,33.05
2018-11-04T05:59:41.819Z,25.08
2018-11-04T06:02:08.971Z,27.45
2018-11-04T06:04:36.240Z,35.45
2018-11-04T06:07:03.397Z,28.52
2018-11-04T06:09:30.473Z,34.35
2018-11-04T06:11:57.580Z,28.73
2018-11-04T06:14:24.695Z,27.20
2018-11-04T06:16:52.300Z,30.35
2018-11-04T06:19:19.471Z,26.85
2018-11-04T06:21:46.566Z,29.50
2018-11-04T06:24:13.700Z,34.50
2018-11-04T06:26:40.761Z,34.48
2018-11-04T06:29:08.367Z,28.10
2018-11-04T06:31:35.446Z,29.95
2018-11-04T06:34:02.527Z,30.72
2018-11-04T06:36:29.695Z,32.98
2018-11-04T06:38:56.837Z,31.30
2018-11-04T06:41:24.336Z,31.15
2018-11-04T06:43:51.728Z,31.90
2018-11-04T06:46:18.844Z,35.70
2018-11-04T06:48:45.960Z,27.75
2018-11-04T06:51:13.027Z,24.43
2018-11-04T06:53:40.115Z,30.48
2018-11-04T06:56:07.188Z,27.05
2018-11-04T06:58:34.427Z,30.82
2018-11-04T07:01:01.514Z,26.27
2018-11-04T07:03:28.607Z,29.70
2018-11-04T07:05:55.769Z,30.17
2018-11-04T07:08:22.976Z,27.07
2018-11-04T07:10:55.107Z,28.75
2018-11-04T07:13:23.457Z,25.55
2018-11-04T07:15:50.559Z,31.77
2018-11-04T07:18:17.713Z,28.00
2018-11-04T07:20:44.805Z,32.58
2018-11-04T07:23:11.912Z,30.05
2018-11-04T07:25:39.272Z,31.60
2018-11-04T07:28:06.626Z,28.50
2018-11-04T07:30:34.046Z,28.35
2018-11-04T07:33:01.140Z,35.80
2018-11-04T07:35:28.554Z,37.13
2018-11-04T07:37:56.101Z,30.72
2018-11-04T07:40:23.750Z,52.30
2018-11-04T07:42:51.270Z,38.40
2018-11-04T07:45:18.464Z,35.20
2018-11-04T07:47:45.734Z,40.73
2018-11-04T07:50:14.626Z,37.67
2018-11-04T07:52:42.732Z,46.80
2018-11-04T07:55:10.450Z,40.23
2018-11-04T07:57:40.568Z,41.23
2018-11-04T08:00:10.908Z,53.00
2018-11-04T08:02:38.135Z,71.50
2018-11-04T08:05:06.546Z,107.80
2018-11-04T08:07:33.756Z,105.80
2018-11-04T08:10:01.140Z,48.83
2018-11-04T08:12:28.458Z,41.47
2018-11-04T08:14:56.065Z,37.33
2018-11-04T08:17:23.301Z,49.30
2018-11-04T08:19:50.699Z,47.73
2018-11-04T08:22:20.924Z,54.23
2018-11-04T08:24:51.193Z,58.37
2018-11-04T08:27:21.207Z,69.83
2018-11-04T08:29:52.968Z,52.97
2018-11-04T08:32:22.660Z,52.20
2018-11-04T08:34:52.811Z,61.57
2018-11-04T08:37:23.121Z,60.13
2018-11-04T08:39:53.432Z,59.47
2018-11-04T08:42:23.199Z,65.33
2018-11-04T08:44:52.733Z,72.20
2018-11-04T08:47:23.371Z,93.60
2018-11-04T08:49:50.994Z,59.03
2018-11-04T08:52:18.170Z,93.07
2018-11-04T08:54:45.261Z,71.57
2018-11-04T08:57:13.121Z,95.33
2018-11-04T08:59:43.967Z,56.67
2018-11-04T09:02:11.512Z,148.07
2018-11-04T09:04:38.952Z,78.80
2018-11-04T09:07:06.168Z,94.20
2018-11-04T09:09:33.671Z,113.53
2018-11-04T09:12:00.907Z,74.87
2018-11-04T09:14:28.294Z,77.13
2018-11-04T09:16:55.927Z,79.80
2018-11-04T09:19:22.984Z,188.47
2018-11-04T09:21:50.629Z,192.97
2018-11-04T09:24:19.686Z,257.37
2018-11-04T09:26:46.991Z,65.10
2018-11-04T09:29:14.233Z,60.97
2018-11-04T09:31:41.723Z,61.83
2018-11-04T09:34:08.897Z,58.23
2018-11-04T09:36:36.076Z,66.20
2018-11-04T09:39:05.707Z,71.20
2018-11-04T09:41:32.791Z,65.70
2018-11-04T09:44:00.208Z,81.50
2018-11-04T09:46:27.276Z,81.90
2018-11-04T09:48:54.378Z,74.73
2018-11-04T09:51:21.502Z,80.27
2018-11-04T09:53:49.015Z,67.57
2018-11-04T09:56:16.113Z,64.40
2018-11-04T09:58:43.277Z,69.13
2018-11-04T10:01:10.352Z,143.73
2018-11-04T10:03:37.732Z,92.43
2018-11-04T10:06:04.824Z,160.97
2018-11-04T10:08:31.892Z,85.93
2018-11-04T10:10:58.983Z,82.13
2018-11-04T10:13:26.295Z,94.37
2018-11-04T10:15:53.292Z,87.33
2018-11-04T10:18:20.838Z,124.80
2018-11-04T10:20:48.319Z,83.87
2018-11-04T10:23:15.091Z,80.83
2018-11-04T10:25:42.493Z,78.97
2018-11-04T10:28:09.665Z,83.00
2018-11-04T10:30:36.742Z,81.23
2018-11-04T10:33:03.862Z,95.20
2018-11-04T10:35:30.991Z,93.63
2018-11-04T10:37:58.149Z,65.77
2018-11-04T10:40:25.485Z,79.33
2018-11-04T10:42:52.551Z,133.20
2018-11-04T10:45:19.620Z,90.63
2018-11-04T10:47:46.729Z,68.27
2018-11-04T10:50:13.884Z,70.30
2018-11-04T10:52:41.068Z,80.67
2018-11-04T10:55:09.501Z,76.40
2018-11-04T10:57:36.648Z,81.67
2018-11-04T11:00:04.799Z,56.47
2018-11-04T11:02:31.916Z,72.47
2018-11-04T11:05:03.628Z,66.30
2018-11-04T11:07:30.714Z,58.20
2018-11-04T11:09:57.799Z,121.50
2018-11-04T11:12:24.867Z,63.33
2018-11-04T11:14:51.968Z,92.80
2018-11-04T11:17:19.119Z,63.13
2018-11-04T11:19:46.196Z,73.03
2018-11-04T11:22:13.657Z,68.73
2018-11-04T11:24:40.725Z,78.37
2018-11-04T11:27:07.808Z,106.77
2018-11-04T11:29:34.931Z,73.40
2018-11-04T11:32:02.020Z,62.17
2018-11-04T11:34:29.191Z,58.13
2018-11-04T11:36:56.283Z,134.37
2018-11-04T11:39:23.440Z,84.67
2018-11-04T11:41:50.710Z,67.60
2018-11-04T11:44:17.783Z,59.43
2018-11-04T11:46:44.901Z,73.23
2018-11-04T11:49:18.972Z,74.63
2018-11-04T11:51:46.048Z,70.23
2018-11-04T11:54:13.206Z,72.53
2018-11-04T11:56:40.315Z,65.77
2018-11-04T11:59:07.482Z,68.17
2018-11-04T12:01:34.564Z,62.63
2018-11-04T12:04:01.803Z,59.17
2018-11-04T12:06:28.888Z,62.73
2018-11-04T12:08:56.016Z,79.30
2018-11-04T12:11:23.084Z,71.37
2018-11-04T12:13:50.172Z,73.97
2018-11-04T12:16:17.260Z,103.53
2018-11-04T12:18:44.307Z,73.93
2018-11-04T12:21:11.531Z,56.63
2018-11-04T12:23:38.805Z,76.90
2018-11-04T12:26:05.885Z,53.77
2018-11-04T12:28:33.068Z,60.00
2018-11-04T12:31:00.243Z,72.23
2018-11-04T12:33:27.352Z,58.40
2018-11-04T12:35:54.413Z,64.40
2018-11-04T12:38:22.066Z,67.93
2018-11-04T12:40:49.297Z,52.37
2018-11-04T12:43:16.415Z,68.00
2018-11-04T12:45:43.627Z,56.10
2018-11-04T12:48:10.661Z,134.07
2018-11-04T12:50:38.021Z,396.27
2018-11-04T12:53:05.116Z,222.60
2018-11-04T12:55:32.254Z,169.73
2018-11-04T12:57:59.329Z,57.67
2018-11-04T13:00:26.387Z,56.53
2018-11-04T13:02:53.470Z,68.90
2018-11-04T13:05:20.579Z,52.87
2018-11-04T13:07:47.928Z,51.77
2018-11-04T13:10:15.115Z,68.27
2018-11-04T13:12:42.075Z,80.33
2018-11-04T13:15:10.860Z,57.53
2018-11-04T13:17:38.019Z,53.90
2018-11-04T13:20:05.287Z,53.63
2018-11-04T13:22:32.372Z,55.13
2018-11-04T13:24:59.535Z,49.97
2018-11-04T13:27:26.680Z,62.97
2018-11-04T13:29:53.756Z,66.50
2018-11-04T13:32:20.831Z,53.43
2018-11-04T13:34:47.911Z,52.47
2018-11-04T13:37:15.025Z,62.60
2018-11-04T13:39:42.224Z,68.93
2018-11-04T13:42:09.380Z,65.23
2018-11-04T13:44:36.463Z,78.00
2018-11-04T13:47:03.891Z,182.27
2018-11-04T13:49:31.050Z,66.73
2018-11-04T13:51:58.037Z,150.00
2018-11-04T13:54:25.125Z,52.90
2018-11-04T13:56:52.419Z,83.90
2018-11-04T13:59:19.568Z,60.93
2018-11-04T14:01:46.656Z,58.27
2018-11-04T14:04:14.279Z,85.07
2018-11-04T14:06:41.456Z,79.30
2018-11-04T14:09:08.767Z,82.40
2018-11-04T14:11:35.865Z,77.63
2018-11-04T14:14:03.191Z,58.97
2018-11-04T14:16:30.411Z,53.80
2018-11-04T14:18:57.476Z,127.60
2018-11-04T14:21:24.552Z,67.63
2018-11-04T14:23:51.791Z,56.60
2018-11-04T14:26:18.834Z,75.50
2018-11-04T14:28:45.910Z,44.07
2018-11-04T14:31:13.466Z,40.17
2018-11-04T14:33:40.501Z,45.70
2018-11-04T14:36:07.884Z,48.90
2018-11-04T14:38:35.454Z,73.43
2018-11-04T14:41:02.616Z,56.63
2018-11-04T14:43:29.760Z,52.80
2018-11-04T14:45:56.856Z,51.50
2018-11-04T14:48:23.923Z,57.10
2018-11-04T14:50:51.083Z,56.43
2018-11-04T14:53:18.593Z,69.43
2018-11-04T14:55:45.675Z,66.07
2018-11-04T14:58:12.736Z,59.23
2018-11-04T15:00:39.960Z,105.63
2018-11-04T15:03:08.418Z,130.00
2018-11-04T15:05:35.547Z,147.47
2018-11-04T15:08:02.847Z,88.40
2018-11-04T15:10:29.932Z,97.27
2018-11-04T15:12:57.490Z,75.77
2018-11-04T15:15:24.699Z,60.80
2018-11-04T15:17:51.875Z,196.70
2018-11-04T15:20:19.536Z,66.50
2018-11-04T15:22:48.454Z,62.07
2018-11-04T15:25:17.959Z,54.30
2018-11-04T15:27:45.197Z,66.73
2018-11-04T15:30:12.624Z,65.00
2018-11-04T15:32:41.561Z,72.43
2018-11-04T15:35:08.817Z,70.13
2018-11-04T15:37:36.171Z,64.93
2018-11-04T15:40:03.816Z,64.13
2018-11-04T15:42:31.007Z,110.70
2018-11-04T15:44:58.244Z,81.37
2018-11-04T15:47:25.402Z,67.37
2018-11-04T15:49:52.492Z,58.40
2018-11-04T15:52:19.612Z,218.23
2018-11-04T15:54:46.760Z,318.93
2018-11-04T15:57:15.429Z,99.00
2018-11-04T15:59:42.991Z,58.53
2018-11-04T16:02:10.234Z,60.20
2018-11-04T16:04:44.550Z,56.33
2018-11-04T16:07:04.740Z,57.23
2018-11-04T16:09:31.813Z,54.23
2018-11-04T16:11:58.881Z,60.20
2018-11-04T16:14:25.964Z,56.00
2018-11-04T16:16:53.067Z,62.37
2018-11-04T16:19:20.169Z,60.40
2018-11-04T16:21:47.379Z,57.97
2018-11-04T16:24:14.540Z,57.50
2018-11-04T16:26:41.727Z,56.87
2018-11-04T16:29:08.818Z,53.70
2018-11-04T16:31:36.224Z,51.73
2018-11-04T16:34:03.295Z,59.20
2018-11-04T16:36:30.375Z,65.60
2018-11-04T16:38:57.479Z,54.50
2018-11-04T16:41:24.711Z,55.73
2018-11-04T16:43:51.847Z,56.67
2018-11-04T16:46:18.865Z,59.03
2018-11-04T16:48:46.293Z,53.20
2018-11-04T16:51:13.396Z,79.63
2018-11-04T16:53:40.560Z,60.10
2018-11-04T16:56:08.534Z,79.27
2018-11-04T16:58:35.541Z,71.50
2018-11-04T17:01:02.627Z,66.73
2018-11-04T17:03:29.776Z,68.50
2018-11-04T17:05:56.865Z,63.37
2018-11-04T17:08:24.272Z,147.53
2018-11-04T17:10:51.369Z,80.93
2018-11-04T17:13:18.452Z,78.40
2018-11-04T17:15:45.536Z,64.37
2018-11-04T17:18:12.716Z,59.53
2018-11-04T17:20:39.901Z,60.70
2018-11-04T17:23:07.019Z,75.60
2018-11-04T17:25:34.719Z,90.73
2018-11-04T17:28:01.924Z,139.80
2018-11-04T17:30:29.007Z,108.93
2018-11-04T17:32:56.868Z,177.93
2018-11-04T17:35:24.151Z,82.57
2018-11-04T17:37:51.240Z,98.40
2018-11-04T17:40:18.469Z,80.83
2018-11-04T17:42:45.836Z,99.60
2018-11-04T17:45:14.671Z,92.03
2018-11-04T17:47:42.021Z,96.37
2018-11-04T17:50:13.851Z,85.53
2018-11-04T17:52:41.545Z,106.33
2018-11-04T17:55:09.147Z,128.67
2018-11-04T17:57:37.000Z,75.63
2018-11-04T18:00:04.948Z,95.00
2018-11-04T18:02:32.115Z,144.60
2018-11-04T18:04:59.616Z,136.90
2018-11-04T18:07:26.696Z,133.03
2018-11-04T18:09:54.024Z,125.57
2018-11-04T18:12:21.747Z,123.87
2018-11-04T18:14:49.020Z,79.67
2018-11-04T18:17:16.130Z,147.77
2018-11-04T18:19:43.215Z,102.03
2018-11-04T18:22:11.596Z,112.10
2018-11-04T18:24:40.545Z,94.80
2018-11-04T18:27:07.959Z,101.03
2018-11-04T18:29:36.129Z,96.10
2018-11-04T18:32:05.819Z,114.43
2018-11-04T18:34:35.147Z,117.13
2018-11-04T18:37:04.021Z,101.47
2018-11-04T18:39:31.107Z,92.17
2018-11-04T18:41:58.476Z,98.57
2018-11-04T18:44:25.714Z,108.43
2018-11-04T18:46:53.759Z,104.97
2018-11-04T18:49:20.862Z,110.87
2018-11-04T18:51:48.049Z,164.03
2018-11-04T18:54:16.468Z,116.13
2018-11-04T18:56:43.977Z,125.20
2018-11-04T18:59:11.198Z,116.20
2018-11-04T19:01:38.248Z,213.87
2018-11-04T19:04:06.553Z,148.43
2018-11-04T19:06:33.781Z,123.23
2018-11-04T19:09:00.839Z,113.27
2018-11-04T19:11:28.097Z,113.47
2018-11-04T19:13:55.049Z,82.70
2018-11-04T19:16:22.120Z,79.30
2018-11-04T19:18:50.168Z,103.57
2018-11-04T19:21:17.247Z,83.40
2018-11-04T19:23:45.133Z,81.60
2018-11-04T19:26:12.221Z,82.73
2018-11-04T19:28:39.325Z,83.23
2018-11-04T19:31:07.481Z,78.90
2018-11-04T19:33:34.568Z,75.97
2018-11-04T19:36:01.664Z,81.93
2018-11-04T19:38:28.869Z,81.70
2018-11-04T19:40:56.196Z,77.03
2018-11-04T19:43:23.271Z,72.87
2018-11-04T19:45:50.955Z,73.13
2018-11-04T19:48:18.260Z,69.20
2018-11-04T19:50:45.515Z,74.70
2018-11-04T19:53:13.175Z,74.40
2018-11-04T19:55:40.423Z,71.27
2018-11-04T19:58:07.705Z,81.77
2018-11-04T20:00:34.792Z,89.70
2018-11-04T20:03:02.268Z,81.90
2018-11-04T20:05:30.243Z,140.43
2018-11-04T20:07:57.324Z,180.20
2018-11-04T20:10:24.530Z,145.73
2018-11-04T20:12:57.664Z,103.07
2018-11-04T20:15:25.314Z,83.40
2018-11-04T20:17:52.396Z,79.97
2018-11-04T20:20:23.317Z,82.23
2018-11-04T20:22:50.223Z,174.90
2018-11-04T20:25:23.891Z,127.50
2018-11-04T20:27:51.056Z,137.67
2018-11-04T20:30:18.257Z,144.53
2018-11-04T20:32:51.083Z,114.07
2018-11-04T20:35:18.164Z,100.00
2018-11-04T20:37:45.279Z,93.33
2018-11-04T20:40:18.872Z,105.50
2018-11-04T20:42:46.120Z,114.03
2018-11-04T20:45:13.284Z,134.23
2018-11-04T20:47:46.052Z,126.07
2018-11-04T20:50:18.959Z,269.53
2018-11-04T20:52:46.041Z,103.03
2018-11-04T20:55:13.836Z,83.20
2018-11-04T20:57:44.377Z,153.87
2018-11-04T21:00:12.733Z,104.40
2018-11-04T21:02:41.399Z,136.90
2018-11-04T21:05:08.434Z,130.37
2018-11-04T21:07:36.030Z,108.93
2018-11-04T21:10:04.699Z,100.83
2018-11-04T21:12:31.749Z,116.30
2018-11-04T21:14:58.844Z,167.37
2018-11-04T21:17:26.071Z,155.47
2018-11-04T21:19:53.236Z,154.33
2018-11-04T21:22:20.521Z,153.67
2018-11-04T21:24:47.640Z,120.03
2018-11-04T21:27:14.700Z,116.13
2018-11-04T21:29:42.173Z,157.80
2018-11-04T21:32:09.152Z,95.23
2018-11-04T21:34:36.713Z,147.47
2018-11-04T21:37:06.116Z,178.33
2018-11-04T21:39:33.213Z,132.07
2018-11-04T21:42:00.567Z,198.80
2018-11-04T21:44:27.853Z,101.37
2018-11-04T21:46:55.269Z,115.13
2018-11-04T21:49:22.394Z,109.53
2018-11-04T21:51:49.425Z,100.80
2018-11-04T21:54:16.517Z,116.53
2018-11-04T21:56:43.814Z,109.50
2018-11-04T21:59:10.856Z,107.83
2018-11-04T22:01:38.183Z,116.40
2018-11-04T22:04:05.416Z,113.93
2018-11-04T22:06:32.424Z,103.00
2018-11-04T22:08:59.515Z,108.33
2018-11-04T22:11:26.596Z,111.77
2018-11-04T22:13:54.268Z,127.57
2018-11-04T22:16:21.276Z,125.63
2018-11-04T22:18:48.352Z,121.43
2018-11-04T22:21:15.467Z,114.07
2018-11-04T22:23:42.892Z,125.67
2018-11-04T22:26:09.959Z,134.90
2018-11-04T22:28:37.024Z,118.13
2018-11-04T22:31:04.459Z,139.20
2018-11-04T22:33:31.519Z,137.67
2018-11-04T22:35:58.660Z,141.33
2018-11-04T22:38:25.805Z,128.33
2018-11-04T22:40:52.875Z,127.90
2018-11-04T22:43:19.949Z,136.10
2018-11-04T22:45:47.094Z,153.13
2018-11-04T22:48:14.164Z,132.33
2018-11-04T22:50:41.264Z,144.07
2018-11-04T22:53:08.337Z,132.60
2018-11-04T22:55:35.434Z,131.83
2018-11-04T22:58:06.452Z,136.17
2018-11-04T23:00:39.724Z,432.60
2018-11-04T23:03:06.996Z,363.77
2018-11-04T23:05:34.048Z,258.40
2018-11-04T23:08:01.143Z,218.83
2018-11-04T23:10:28.211Z,128.90
2018-11-04T23:12:55.415Z,133.27
2018-11-04T23:15:22.521Z,104.53
2018-11-04T23:17:49.602Z,108.23
2018-11-04T23:20:16.847Z,116.40
2018-11-04T23:22:44.215Z,117.53
2018-11-04T23:25:12.484Z,102.80
2018-11-04T23:27:41.177Z,103.67
2018-11-04T23:30:13.249Z,109.90
2018-11-04T23:32:40.595Z,168.07
2018-11-04T23:35:09.771Z,211.37
2018-11-04T23:37:36.850Z,134.63
2018-11-04T23:40:04.493Z,163.87
2018-11-04T23:42:31.560Z,176.60
2018-11-04T23:44:58.640Z,129.93
2018-11-04T23:47:25.748Z,165.30
2018-11-04T23:49:53.186Z,123.37
2018-11-04T23:52:20.283Z,103.10
2018-11-04T23:54:47.359Z,104.57
2018-11-04T23:57:14.445Z,102.73
2018-11-04T23:59:41.609Z,87.40
